Time;durP1;ratioP1;P1;durP2;ratioP2;P2;SDS_P1;SDS_P2;PMS_P1;PMS_P2;Temp;Humidity;BMP_temperature;BMP_pressure;BME280_temperature;BME280_humidity;BME280_pressure;Samples;Min_cycle;Max_cycle;Signal;HPM_P1;HPM_P2
2023/08/12 00:02:13;;;;;;;8.23;3.78;;;19.70;99.90;;;19.33;100.00;98001.13;5003525;28;20046;-73
2023/08/12 00:04:40;;;;;;;8.02;3.60;;;19.70;99.90;;;19.46;100.00;97990.56;5003097;28;20873;-73
2023/08/12 00:07:07;;;;;;;6.05;3.45;;;19.80;99.90;;;19.61;100.00;97978.91;4985258;28;20674;-73
2023/08/12 00:09:34;;;;;;;7.82;4.07;;;19.90;99.90;;;19.70;100.00;97972.97;5004629;28;20107;-73
2023/08/12 00:12:01;;;;;;;5.70;3.60;;;20.00;99.90;;;19.78;100.00;97965.38;5000791;28;20050;-73
2023/08/12 00:14:28;;;;;;;6.00;3.45;;;20.20;99.90;;;19.79;100.00;97963.56;5000490;28;20587;-73
2023/08/12 00:16:55;;;;;;;5.05;3.40;;;20.30;99.90;;;19.93;100.00;97960.75;5003577;28;20076;-73
2023/08/12 00:19:23;;;;;;;11.20;3.92;;;20.20;99.90;;;19.89;100.00;97954.03;4993937;28;20066;-72
2023/08/12 00:21:52;;;;;;;8.35;3.75;;;20.30;99.90;;;19.94;100.00;97944.00;4988114;28;20266;-72
2023/08/12 00:24:19;;;;;;;8.30;4.75;;;20.40;99.90;;;19.91;100.00;97930.19;5007986;28;20077;-73
2023/08/12 00:26:47;;;;;;;7.78;3.50;;;20.40;99.90;;;19.85;100.00;97926.25;5020813;28;20057;-73
2023/08/12 00:29:15;;;;;;;5.78;3.40;;;20.50;99.90;;;19.91;100.00;97925.78;5007037;28;20268;-72
2023/08/12 00:31:42;;;;;;;5.93;3.03;;;20.50;99.90;;;19.91;100.00;97938.97;5007026;28;20054;-73
2023/08/12 00:34:09;;;;;;;5.88;3.47;;;20.50;99.90;;;19.93;100.00;97944.09;5002261;28;20868;-72
2023/08/12 00:36:37;;;;;;;5.25;3.67;;;20.50;99.90;;;19.97;100.00;97938.47;4997428;28;20054;-73
2023/08/12 00:39:05;;;;;;;5.57;3.88;;;20.50;99.90;;;19.92;100.00;97943.25;5003985;28;20046;-73
2023/08/12 00:41:34;;;;;;;4.45;3.22;;;20.50;99.90;;;20.02;100.00;97948.69;4997910;28;20054;-73
2023/08/12 00:44:02;;;;;;;6.03;3.58;;;20.50;99.90;;;19.90;100.00;97950.44;5003548;28;20062;-73
2023/08/12 00:46:30;;;;;;;4.93;3.50;;;20.50;99.90;;;20.10;100.00;97961.28;5007069;28;20046;-73
2023/08/12 00:48:57;;;;;;;4.90;3.03;;;20.50;99.90;;;20.07;100.00;97959.72;5011793;28;20161;-73
2023/08/12 00:51:24;;;;;;;5.47;3.33;;;20.60;99.90;;;20.13;100.00;97964.53;5004036;28;20423;-73
2023/08/12 00:53:53;;;;;;;4.53;3.65;;;20.60;99.90;;;20.10;100.00;97966.56;5006923;28;20106;-70
2023/08/12 00:56:21;;;;;;;8.38;3.25;;;20.70;99.90;;;20.02;100.00;97973.22;4990463;28;20100;-73
2023/08/12 00:58:48;;;;;;;8.25;3.35;;;20.60;99.90;;;20.11;100.00;97973.50;5004975;28;20049;-71
2023/08/12 01:01:17;;;;;;;5.80;3.08;;;20.70;99.90;;;20.34;100.00;97975.22;5004245;28;20470;-73
2023/08/12 01:03:45;;;;;;;5.05;3.13;;;20.70;99.90;;;20.37;100.00;97961.00;5001251;28;20424;-73
2023/08/12 01:06:13;;;;;;;4.65;2.90;;;20.70;99.90;;;20.34;100.00;97956.78;5002314;28;20056;-72
2023/08/12 01:08:40;;;;;;;6.53;2.85;;;20.80;99.90;;;20.38;100.00;97954.75;5006147;28;20046;-73
2023/08/12 01:11:31;;;;;;;4.90;3.28;;;20.80;99.90;;;20.53;100.00;97960.66;5018602;28;20097;-73
2023/08/12 01:14:10;;;;;;;10.00;2.85;;;20.80;99.90;;;20.52;100.00;97958.97;5019768;28;20061;-73
2023/08/12 01:16:47;;;;;;;3.72;2.47;;;20.90;99.90;;;20.70;100.00;97946.19;5007917;28;20057;-73
2023/08/12 01:19:39;;;;;;;4.82;2.88;;;21.00;99.90;;;20.75;100.00;97939.56;4984175;28;20164;-73
2023/08/12 01:22:11;;;;;;;4.75;2.88;;;21.10;99.90;;;20.59;100.00;97942.56;4989385;28;20057;-73
2023/08/12 01:24:44;;;;;;;6.88;2.67;;;21.10;99.90;;;20.55;100.00;97949.03;5005288;28;20100;-72
2023/08/12 01:27:12;;;;;;;;;;;21.10;99.90;;;20.54;100.00;97968.44;4988533;28;20053;-73
2023/08/12 01:29:49;;;;;;;6.68;2.97;;;21.00;99.90;;;20.38;100.00;97965.31;5001872;28;19932;-72
2023/08/12 01:32:59;;;;;;;6.15;3.67;;;20.90;99.90;;;20.11;100.00;97984.03;5003886;28;20487;-72
2023/08/12 01:35:34;;;;;;;16.48;3.90;;;20.80;99.90;;;19.91;100.00;98004.81;5018522;28;20057;-74
2023/08/12 01:38:06;;;;;;;9.57;3.22;;;20.70;99.90;;;19.80;100.00;98020.59;5000217;28;20042;-73
2023/08/12 01:40:35;;;;;;;7.50;3.50;;;20.50;99.90;;;19.73;100.00;98028.09;4998741;28;20550;-73
2023/08/12 01:43:04;;;;;;;12.63;3.97;;;20.30;99.90;;;19.72;100.00;98044.81;5002969;28;20599;-74
2023/08/12 01:45:34;;;;;;;11.23;4.00;;;20.10;99.90;;;19.71;100.00;98066.84;5003663;28;20557;-74
2023/08/12 01:48:02;;;;;;;9.43;5.28;;;20.10;99.90;;;19.53;100.00;98084.78;4990390;28;20053;-74
2023/08/12 01:50:30;;;;;;;11.77;4.63;;;20.00;99.90;;;19.52;100.00;98101.50;4985887;28;20179;-74
2023/08/12 01:52:58;;;;;;;10.40;5.18;;;19.90;99.90;;;19.53;100.00;98118.19;4971394;28;20066;-74
2023/08/12 01:55:26;;;;;;;10.07;5.13;;;19.80;99.90;;;19.49;100.00;98117.53;4989321;28;20048;-74
2023/08/12 01:57:53;;;;;;;10.57;5.20;;;19.80;99.90;;;19.44;100.00;98122.28;5001716;28;20050;-74
2023/08/12 02:00:20;;;;;;;10.15;4.97;;;19.80;99.90;;;19.47;100.00;98126.50;5016627;28;20049;-74
2023/08/12 02:02:47;;;;;;;9.15;5.20;;;19.80;99.90;;;19.49;100.00;98129.88;5000862;28;20465;-74
2023/08/12 02:05:15;;;;;;;8.30;5.10;;;19.80;99.90;;;19.51;100.00;98117.44;5001156;28;20489;-74
2023/08/12 02:07:42;;;;;;;8.63;5.50;;;19.80;99.90;;;19.55;100.00;98121.53;4999707;28;20054;-74
2023/08/12 02:10:09;;;;;;;8.48;4.88;;;19.80;99.90;;;19.56;100.00;98110.88;5002361;28;20057;-72
2023/08/12 02:12:37;;;;;;;13.10;5.05;;;19.80;99.90;;;19.54;100.00;98104.03;4971751;28;20054;-74
2023/08/12 02:15:05;;;;;;;9.55;4.78;;;19.90;99.90;;;19.57;100.00;98103.84;5001617;28;20124;-74
2023/08/12 02:17:36;;;;;;;8.52;4.20;;;19.80;99.90;;;19.44;100.00;98088.91;5013035;28;20137;-74
2023/08/12 02:20:04;;;;;;;7.95;4.47;;;19.90;99.90;;;19.49;100.00;98079.84;4998481;28;20577;-74
2023/08/12 02:22:31;;;;;;;8.48;4.93;;;19.80;99.90;;;19.48;100.00;98068.47;5000894;28;20108;-74
2023/08/12 02:24:58;;;;;;;8.50;4.78;;;19.80;99.90;;;19.52;100.00;98064.66;5000883;28;20050;-74
2023/08/12 02:27:26;;;;;;;7.00;5.32;;;19.80;99.90;;;19.51;100.00;98064.78;5001881;28;20046;-71
2023/08/12 02:29:53;;;;;;;8.45;4.55;;;19.80;99.90;;;19.56;100.00;98058.22;5002418;28;20053;-74
2023/08/12 02:32:20;;;;;;;8.50;5.07;;;19.80;99.90;;;19.60;100.00;98062.31;5014911;28;20080;-74
2023/08/12 02:34:47;;;;;;;9.52;5.75;;;19.90;99.90;;;19.47;100.00;98055.41;5001759;28;20135;-74
2023/08/12 02:37:15;;;;;;;10.05;5.78;;;19.90;99.90;;;19.41;100.00;98047.00;5002044;28;20459;-73
2023/08/12 02:39:45;;;;;;;12.30;5.03;;;19.90;99.90;;;19.51;100.00;98047.19;4999231;28;20050;-74
2023/08/12 02:42:12;;;;;;;7.30;4.50;;;19.90;99.90;;;19.58;100.00;98044.97;5002723;28;20128;-74
2023/08/12 02:44:40;;;;;;;8.60;5.18;;;19.80;99.90;;;19.56;100.00;98041.59;5000147;28;20085;-73
2023/08/12 02:47:07;;;;;;;11.52;5.10;;;19.90;99.90;;;19.55;100.00;98039.91;5000201;28;20091;-74
2023/08/12 02:49:34;;;;;;;10.80;5.00;;;19.90;99.90;;;19.61;100.00;98040.31;4999285;28;20051;-72
2023/08/12 02:52:01;;;;;;;9.52;5.10;;;19.90;99.90;;;19.68;100.00;98043.31;5001297;28;20105;-73
2023/08/12 02:54:28;;;;;;;7.88;4.57;;;20.00;99.90;;;19.55;100.00;98035.50;5002505;28;20046;-74
2023/08/12 02:56:56;;;;;;;7.65;5.43;;;20.00;99.90;;;19.54;100.00;98043.50;5000997;28;20100;-73
2023/08/12 02:59:24;;;;;;;9.25;5.07;;;20.00;99.90;;;19.53;100.00;98042.66;5001897;28;20057;-73
2023/08/12 03:01:52;;;;;;;7.40;5.88;;;19.90;99.90;;;19.39;100.00;98037.53;5001208;28;20050;-74
2023/08/12 03:04:19;;;;;;;7.65;4.60;;;19.90;99.90;;;19.27;100.00;98033.97;5004985;28;20414;-74
2023/08/12 03:06:46;;;;;;;8.43;6.38;;;19.90;99.90;;;19.35;100.00;98036.91;5007763;28;20104;-73
2023/08/12 03:09:13;;;;;;;8.40;5.53;;;19.80;99.90;;;19.48;100.00;98028.97;4996183;28;20054;-74
2023/08/12 03:11:43;;;;;;;7.93;4.80;;;19.90;99.90;;;19.44;100.00;98022.25;5008525;28;20046;-74
2023/08/12 03:14:10;;;;;;;11.15;6.47;;;19.90;99.90;;;19.30;100.00;98010.06;5007002;28;20049;-72
2023/08/12 03:16:37;;;;;;;7.80;4.85;;;19.90;99.90;;;19.25;100.00;98012.22;4999975;28;20654;-73
2023/08/12 03:19:04;;;;;;;14.80;7.03;;;19.90;99.90;;;19.27;100.00;98014.72;4989447;28;20085;-73
2023/08/12 03:21:32;;;;;;;9.95;5.75;;;19.80;99.90;;;19.27;100.00;98012.91;5004918;28;20112;-74
2023/08/12 03:23:59;;;;;;;9.50;4.10;;;19.80;99.90;;;19.36;100.00;98006.16;5007125;28;20510;-74
2023/08/12 03:26:26;;;;;;;10.43;5.22;;;19.80;99.90;;;19.43;100.00;98005.63;5000653;28;20056;-74
2023/08/12 03:28:53;;;;;;;7.05;4.10;;;19.80;99.90;;;19.48;100.00;98007.94;5007358;28;20510;-72
2023/08/12 03:31:20;;;;;;;8.27;4.50;;;19.80;99.90;;;19.53;100.00;97994.44;5016214;28;20054;-74
2023/08/12 03:33:51;;;;;;;11.10;4.88;;;19.90;99.90;;;19.47;100.00;97994.88;5005486;28;20394;-71
2023/08/12 03:36:18;;;;;;;9.98;5.30;;;19.90;99.90;;;19.27;100.00;97998.91;5004096;28;20050;-71
2023/08/12 03:38:45;;;;;;;10.32;5.00;;;19.90;99.90;;;19.40;100.00;98005.00;4987558;28;20049;-71
2023/08/12 03:41:13;;;;;;;7.40;5.38;;;19.90;99.90;;;19.27;100.00;98002.38;5004034;28;20050;-73
2023/08/12 03:43:40;;;;;;;9.30;6.32;;;19.80;99.90;;;19.28;100.00;98001.44;5002985;28;20585;-72
2023/08/12 03:46:08;;;;;;;8.85;6.07;;;19.80;99.90;;;19.33;100.00;97999.31;5006795;28;20066;-74
2023/08/12 03:48:35;;;;;;;13.48;6.00;;;19.80;99.90;;;19.26;100.00;98002.50;4988080;28;20046;-72
2023/08/12 03:51:02;;;;;;;7.95;5.75;;;19.70;99.90;;;19.20;100.00;98002.00;5006448;28;20050;-72
2023/08/12 03:53:29;;;;;;;8.50;6.53;;;19.60;99.90;;;19.19;100.00;97996.84;5004045;28;20438;-71
2023/08/12 03:55:57;;;;;;;10.77;6.72;;;19.50;99.90;;;19.10;100.00;97995.69;5002284;28;20486;-72
2023/08/12 03:58:23;;;;;;;10.68;7.07;;;19.40;99.90;;;19.08;100.00;98002.84;4991147;28;20132;-71
2023/08/12 04:00:51;;;;;;;12.07;6.68;;;19.30;99.90;;;19.04;100.00;97996.13;5002556;28;20057;-72
2023/08/12 04:03:18;;;;;;;11.07;6.93;;;19.30;99.90;;;19.00;100.00;97999.94;5004629;28;20054;-72
2023/08/12 04:05:51;;;;;;;9.60;6.80;;;19.30;99.90;;;18.97;100.00;97994.88;5021522;28;20207;-72
2023/08/12 04:08:22;;;;;;;9.38;7.15;;;19.30;99.90;;;18.93;100.00;97990.78;5006536;28;20060;-72
2023/08/12 04:10:51;;;;;;;12.25;8.02;;;19.20;99.90;;;18.90;100.00;97997.09;5003006;28;20046;-72
2023/08/12 04:13:18;;;;;;;11.80;7.82;;;19.20;99.90;;;18.82;100.00;97994.16;4999993;28;20088;-71
2023/08/12 04:15:53;;;;;;;13.43;8.30;;;19.20;99.90;;;18.86;100.00;97987.75;5006013;28;20054;-71
2023/08/12 04:18:20;;;;;;;11.07;7.82;;;19.20;99.90;;;18.84;100.00;97986.16;5006175;28;20133;-73
2023/08/12 04:20:52;;;;;;;11.82;7.80;;;19.20;99.90;;;18.80;100.00;97982.91;5005641;28;20108;-71
2023/08/12 04:23:19;;;;;;;10.00;7.10;;;19.10;99.90;;;18.83;100.00;97980.06;5005831;28;20038;-73
2023/08/12 04:25:48;;;;;;;12.25;8.32;;;19.00;99.90;;;18.85;100.00;97970.28;5003058;28;20050;-71
2023/08/12 04:28:16;;;;;;;11.02;8.13;;;19.00;99.90;;;18.83;100.00;97968.72;5006017;28;20058;-72
2023/08/12 04:31:00;;;;;;;14.63;8.20;;;19.00;99.90;;;18.77;100.00;97959.44;5015364;28;20478;-73
2023/08/12 04:33:28;;;;;;;16.17;9.13;;;18.90;99.90;;;18.71;100.00;97962.47;4988252;28;20050;-72
2023/08/12 04:35:56;;;;;;;15.35;9.43;;;18.90;99.90;;;18.69;100.00;97962.59;5018881;28;20367;-72
2023/08/12 04:38:24;;;;;;;15.18;9.93;;;18.90;99.90;;;18.67;100.00;97964.47;5004387;28;20046;-72
2023/08/12 04:40:54;;;;;;;14.73;9.00;;;18.90;99.90;;;18.72;100.00;97961.53;5016818;28;20411;-73
2023/08/12 04:43:21;;;;;;;14.95;9.68;;;18.80;99.90;;;18.73;100.00;97950.06;5018631;28;20129;-72
2023/08/12 04:45:49;;;;;;;14.30;9.18;;;18.80;99.90;;;18.65;100.00;97945.31;5001217;28;20057;-72
2023/08/12 04:48:16;;;;;;;14.75;9.32;;;18.70;99.90;;;18.74;100.00;97942.06;5005024;28;20108;-74
2023/08/12 04:50:43;;;;;;;20.25;10.75;;;18.70;99.90;;;18.73;100.00;97943.03;4996880;28;20046;-72
2023/08/12 04:53:10;;;;;;;15.27;9.38;;;18.70;99.90;;;18.77;100.00;97943.66;5000450;28;20057;-71
2023/08/12 04:55:38;;;;;;;14.52;9.60;;;18.70;99.90;;;18.81;100.00;97934.63;5004258;28;20149;-72
2023/08/12 04:58:05;;;;;;;14.27;9.40;;;18.80;99.90;;;18.79;100.00;97932.13;5002846;28;20479;-73
2023/08/12 05:00:32;;;;;;;15.38;9.50;;;18.80;99.90;;;18.97;100.00;97932.56;5007076;28;20122;-74
2023/08/12 05:02:59;;;;;;;12.07;8.55;;;18.90;99.90;;;19.10;100.00;97934.34;5003361;28;20108;-71
2023/08/12 05:05:27;;;;;;;9.88;7.22;;;19.00;99.90;;;19.21;100.00;97935.25;5003945;28;20052;-71
2023/08/12 05:07:54;;;;;;;9.65;7.68;;;19.00;99.90;;;19.24;100.00;97934.19;5001364;28;20045;-72
2023/08/12 05:10:21;;;;;;;13.43;7.70;;;19.10;99.90;;;19.36;100.00;97940.34;5005068;28;20506;-74
2023/08/12 05:12:50;;;;;;;9.57;7.88;;;19.20;99.90;;;19.37;100.00;97936.78;5003484;28;20058;-73
2023/08/12 05:15:17;;;;;;;10.48;7.13;;;19.20;99.90;;;19.47;100.00;97945.66;5001819;28;20132;-74
2023/08/12 05:17:45;;;;;;;10.43;6.70;;;19.20;99.90;;;19.47;100.00;97936.94;5001368;28;20054;-74
2023/08/12 05:20:13;;;;;;;10.88;6.93;;;19.20;99.90;;;19.50;100.00;97929.69;5001516;28;20382;-71
2023/08/12 05:22:40;;;;;;;10.02;6.18;;;19.20;99.90;;;19.56;100.00;97936.25;5004047;28;20057;-74
2023/08/12 05:25:10;;;;;;;11.82;6.82;;;19.30;99.90;;;19.73;100.00;97937.69;5001776;28;20054;-73
2023/08/12 05:27:38;;;;;;;13.85;8.63;;;19.40;99.90;;;19.58;100.00;97931.72;5004028;28;20050;-73
2023/08/12 05:30:06;;;;;;;9.82;5.95;;;19.50;99.90;;;19.67;100.00;97930.22;5002343;28;20049;-74
2023/08/12 05:32:33;;;;;;;8.57;6.65;;;19.60;99.90;;;19.75;100.00;97931.38;5002774;28;20983;-74
2023/08/12 05:35:01;;;;;;;9.82;6.22;;;19.60;99.90;;;19.84;100.00;97937.72;5006935;28;20041;-73
2023/08/12 05:37:45;;;;;;;9.85;6.15;;;19.70;99.90;;;19.91;100.00;97933.69;4984351;28;20180;-74
2023/08/12 05:40:13;;;;;;;11.57;7.65;;;19.70;99.90;;;19.85;100.00;97942.88;5001222;28;20459;-74
2023/08/12 05:42:40;;;;;;;8.30;7.03;;;19.70;99.90;;;19.77;100.00;97947.88;5003501;28;20053;-74
2023/08/12 05:45:08;;;;;;;10.10;6.50;;;19.80;99.90;;;19.81;100.00;97946.69;5004533;28;20175;-74
2023/08/12 05:47:35;;;;;;;11.30;8.07;;;19.70;99.90;;;19.82;100.00;97955.47;5015955;28;20162;-74
2023/08/12 05:50:02;;;;;;;9.73;7.32;;;19.80;99.90;;;19.89;100.00;97958.44;5003923;28;20058;-72
2023/08/12 05:52:29;;;;;;;9.32;6.40;;;19.70;99.90;;;19.89;100.00;97959.31;5002078;28;20146;-74
2023/08/12 05:54:56;;;;;;;12.27;7.53;;;19.70;99.90;;;19.73;100.00;97961.38;5000987;28;20137;-73
2023/08/12 05:57:24;;;;;;;10.48;7.00;;;19.80;99.90;;;19.92;100.00;97961.72;4999134;28;20488;-74
2023/08/12 05:59:55;;;;;;;8.63;7.20;;;19.90;99.90;;;20.00;100.00;97959.34;5002367;28;20109;-74
2023/08/12 06:02:22;;;;;;;8.07;6.72;;;20.00;99.90;;;20.12;100.00;97959.38;4988772;28;20045;-74
2023/08/12 06:04:50;;;;;;;9.02;7.03;;;20.10;99.90;;;20.30;100.00;97963.25;5016474;28;20053;-73
2023/08/12 06:07:18;;;;;;;7.65;6.60;;;20.10;99.90;;;20.54;100.00;97963.16;5001101;28;20105;-74
2023/08/12 06:09:45;;;;;;;9.27;6.70;;;20.20;99.90;;;20.43;100.00;97958.69;5002126;28;20045;-74
2023/08/12 06:12:12;;;;;;;9.13;6.82;;;20.40;99.90;;;20.72;100.00;97962.72;5018427;28;20050;-74
2023/08/12 06:14:40;;;;;;;7.82;5.57;;;20.60;99.90;;;21.03;100.00;97969.09;4999342;28;20054;-74
2023/08/12 06:17:07;;;;;;;7.75;5.85;;;20.70;99.90;;;21.14;100.00;97963.78;5001447;28;20055;-74
2023/08/12 06:19:35;;;;;;;9.43;5.05;;;20.80;99.90;;;21.41;100.00;97965.19;4986968;28;20050;-74
2023/08/12 06:22:03;;;;;;;6.95;6.22;;;20.90;99.90;;;21.65;100.00;97963.22;5003948;28;20057;-74
2023/08/12 06:24:30;;;;;;;8.75;5.53;;;21.00;99.90;;;21.56;100.00;97955.22;5003110;28;20100;-74
2023/08/12 06:26:58;;;;;;;7.47;4.90;;;21.10;99.90;;;21.48;100.00;97945.25;4999333;28;20069;-74
2023/08/12 06:29:26;;;;;;;8.63;5.03;;;21.20;99.90;;;21.55;100.00;97938.50;5003572;28;20822;-74
2023/08/12 06:31:54;;;;;;;6.75;5.00;;;21.30;99.90;;;21.44;100.00;97922.69;5001296;28;20056;-74
2023/08/12 06:34:22;;;;;;;7.38;5.53;;;21.50;99.90;;;21.42;100.00;97919.38;5003645;28;20077;-73
2023/08/12 06:36:49;;;;;;;9.73;5.53;;;21.50;99.90;;;21.54;100.00;97921.00;4984293;28;20054;-74
2023/08/12 06:39:16;;;;;;;9.98;4.88;;;21.60;99.90;;;21.64;100.00;97916.63;5003810;28;20065;-72
2023/08/12 06:41:43;;;;;;;7.38;4.53;;;21.60;99.90;;;21.70;100.00;97912.66;5000306;28;20053;-73
2023/08/12 06:44:10;;;;;;;5.97;4.93;;;21.60;99.90;;;21.65;100.00;97915.66;5006034;28;20143;-74
2023/08/12 06:46:37;;;;;;;6.15;4.68;;;21.60;99.90;;;21.77;100.00;97911.16;5001134;28;20078;-73
2023/08/12 06:49:04;;;;;;;6.18;4.50;;;21.70;99.90;;;21.93;100.00;97910.72;5005427;28;20046;-71
2023/08/12 06:51:31;;;;;;;6.80;4.88;;;21.70;99.90;;;21.69;100.00;97910.94;5001188;28;20465;-71
2023/08/12 06:53:58;;;;;;;17.10;4.95;;;21.90;99.90;;;21.97;100.00;97909.50;5001295;28;20058;-73
2023/08/12 06:56:25;;;;;;;6.75;4.43;;;22.00;99.90;;;22.40;100.00;97899.75;4999491;28;20074;-73
2023/08/12 06:58:52;;;;;;;6.72;4.45;;;22.20;99.90;;;22.33;100.00;97902.09;5000700;28;20049;-73
2023/08/12 07:01:19;;;;;;;5.88;4.40;;;22.30;99.90;;;22.19;100.00;97887.38;5001117;28;20053;-73
2023/08/12 07:03:46;;;;;;;7.25;4.38;;;22.40;99.90;;;22.18;100.00;97898.91;5003531;28;20046;-73
2023/08/12 07:06:13;;;;;;;6.00;3.80;;;22.30;99.90;;;22.42;100.00;97889.88;4987192;28;20049;-73
2023/08/12 07:08:40;;;;;;;5.65;3.28;;;22.30;99.90;;;23.01;100.00;97875.91;5003954;28;20133;-74
2023/08/12 07:11:08;;;;;;;7.55;4.15;;;22.40;99.90;;;22.79;100.00;97858.44;5006461;28;20054;-74
2023/08/12 07:13:35;;;;;;;5.85;3.60;;;22.50;99.90;;;22.73;100.00;97861.59;5001960;28;20046;-73
2023/08/12 07:16:02;;;;;;;6.53;4.00;;;22.50;99.90;;;22.98;100.00;97855.81;4999404;28;20049;-73
2023/08/12 07:18:30;;;;;;;7.72;3.72;;;22.60;99.90;;;23.16;100.00;97853.34;5004645;28;20529;-73
2023/08/12 07:20:59;;;;;;;5.63;3.55;;;22.80;99.90;;;22.87;100.00;97855.09;5000190;28;20583;-71
2023/08/12 07:23:27;;;;;;;4.45;3.05;;;22.80;99.90;;;22.88;100.00;97838.25;4999865;28;20046;-72
2023/08/12 07:25:54;;;;;;;5.22;3.70;;;22.60;99.90;;;22.53;100.00;97850.09;5001719;28;20061;-72
2023/08/12 07:28:21;;;;;;;7.13;3.05;;;22.30;99.90;;;22.42;100.00;97855.50;5003844;28;20528;-70
2023/08/12 07:30:49;;;;;;;4.65;3.17;;;22.30;99.90;;;22.33;100.00;97854.50;5001211;28;20104;-72
2023/08/12 07:33:16;;;;;;;5.28;3.38;;;22.10;99.90;;;22.13;100.00;97858.81;4986878;28;20053;-72
2023/08/12 07:35:43;;;;;;;4.68;3.10;;;22.10;99.90;;;22.24;100.00;97864.06;5003303;28;20057;-72
2023/08/12 07:38:13;;;;;;;9.73;4.20;;;22.10;99.90;;;21.89;100.00;97886.34;4997550;28;20093;-72
2023/08/12 07:40:40;;;;;;;5.57;3.63;;;22.10;99.90;;;21.66;100.00;97898.00;5001467;28;20050;-73
2023/08/12 07:43:08;;;;;;;5.90;3.90;;;22.10;99.90;;;21.92;100.00;97912.53;4987237;28;20074;-72
2023/08/12 07:45:35;;;;;;;5.57;3.85;;;22.00;99.90;;;21.88;100.00;97913.75;5017561;28;20054;-72
2023/08/12 07:48:03;;;;;;;8.23;4.22;;;22.00;99.90;;;22.08;100.00;97909.44;5000896;28;20097;-72
2023/08/12 07:50:30;;;;;;;8.98;4.15;;;22.00;99.90;;;22.16;100.00;97900.03;5001253;28;20073;-72
2023/08/12 07:52:57;;;;;;;7.55;4.50;;;21.90;99.90;;;22.12;100.00;97884.44;5001440;28;20054;-72
2023/08/12 07:55:24;;;;;;;6.30;3.75;;;21.90;99.90;;;22.34;100.00;97895.84;5004089;28;20606;-72
2023/08/12 07:57:53;;;;;;;7.60;4.47;;;22.20;99.90;;;22.24;100.00;97882.56;5006239;28;20054;-71
2023/08/12 08:00:20;;;;;;;6.70;4.10;;;22.50;99.90;;;22.47;100.00;97880.59;5003717;28;20450;-72
2023/08/12 08:02:47;;;;;;;7.15;4.10;;;22.60;99.90;;;22.75;100.00;97864.94;5004711;28;20065;-72
2023/08/12 08:05:15;;;;;;;8.60;4.40;;;22.70;99.90;;;22.98;100.00;97845.22;5003405;28;20042;-72
2023/08/12 08:07:43;;;;;;;5.18;3.83;;;22.60;99.90;;;23.33;100.00;97838.63;5005858;28;20050;-71
2023/08/12 08:10:10;;;;;;;5.00;3.35;;;23.00;99.90;;;23.78;100.00;97827.44;5007736;28;20054;-72
2023/08/12 08:12:37;;;;;;;6.90;3.72;;;23.50;99.90;;;23.86;100.00;97831.22;5001068;28;20054;-72
2023/08/12 08:15:05;;;;;;;6.38;3.88;;;23.80;99.90;;;23.32;100.00;97818.38;5000524;28;20053;-72
2023/08/12 08:17:32;;;;;;;8.50;3.80;;;23.50;99.90;;;23.10;100.00;97824.78;5000127;28;20116;-72
2023/08/12 08:20:05;;;;;;;7.30;3.75;;;23.40;99.90;;;22.91;100.00;97816.78;5002728;28;20050;-72
2023/08/12 08:22:32;;;;;;;5.60;2.80;;;23.30;99.90;;;23.45;100.00;97812.81;5003482;28;20053;-72
2023/08/12 08:25:00;;;;;;;8.02;2.95;;;23.40;99.90;;;23.73;100.00;97810.25;5004454;28;20098;-72
2023/08/12 08:27:27;;;;;;;5.32;3.45;;;23.70;99.90;;;23.65;100.00;97799.53;5002250;28;20473;-72
2023/08/12 08:29:54;;;;;;;10.00;3.40;;;23.70;99.90;;;23.73;100.00;97803.13;5002155;28;20053;-72
2023/08/12 08:32:22;;;;;;;6.88;3.72;;;24.00;99.90;;;23.59;100.00;97804.41;5002459;28;20490;-72
2023/08/12 08:34:49;;;;;;;5.30;3.10;;;23.60;99.90;;;23.69;100.00;97804.41;5000031;28;20054;-71
2023/08/12 08:37:16;;;;;;;5.70;3.15;;;23.60;99.90;;;23.92;100.00;97794.31;5005257;28;20149;-72
2023/08/12 08:39:43;;;;;;;5.93;3.05;;;23.60;99.90;;;24.39;100.00;97788.16;5003535;28;20131;-72
2023/08/12 08:42:12;;;;;;;5.50;3.15;;;23.70;99.90;;;24.58;100.00;97781.94;5003679;28;20140;-72
2023/08/12 08:44:42;;;;;;;5.53;3.60;;;23.90;99.90;;;24.94;100.00;97782.00;5002451;28;20054;-74
2023/08/12 08:47:10;;;;;;;7.97;3.70;;;24.30;99.90;;;25.77;100.00;97771.91;5003264;28;20133;-72
2023/08/12 08:49:39;;;;;;;6.15;3.03;;;25.20;99.90;;;26.39;100.00;97776.22;4988098;28;20053;-72
2023/08/12 08:52:06;;;;;;;7.05;3.03;;;26.40;99.90;;;25.81;100.00;97775.91;4986302;28;20141;-72
2023/08/12 08:54:34;;;;;;;5.53;3.10;;;26.80;99.90;;;25.33;100.00;97790.50;5002573;28;20058;-72
2023/08/12 08:57:02;;;;;;;5.68;3.10;;;26.10;99.90;;;24.69;100.00;97784.38;5004092;28;20179;-72
2023/08/12 08:59:45;;;;;;;6.68;3.22;;;25.50;99.90;;;24.94;100.00;97793.44;5001045;28;20119;-72
2023/08/12 09:02:17;;;;;;;6.68;3.13;;;25.40;99.90;;;24.80;100.00;97801.94;5017587;28;20049;-72
2023/08/12 09:04:46;;;;;;;6.93;2.83;;;25.20;99.90;;;24.77;100.00;97812.81;5003921;28;20100;-71
2023/08/12 09:07:13;;;;;;;5.68;3.35;;;24.80;99.90;;;24.50;100.00;97829.63;5017465;28;20061;-71
2023/08/12 09:09:48;;;;;;;7.70;4.00;;;24.60;99.90;;;24.30;100.00;97844.75;4999391;28;20116;-71
2023/08/12 09:12:16;;;;;;;6.43;4.05;;;24.70;99.90;;;24.25;100.00;97844.34;5003690;28;20081;-73
2023/08/12 09:14:44;;;;;;;8.32;4.80;;;24.20;99.90;;;23.93;100.00;97857.00;4972524;28;20802;-73
2023/08/12 09:17:11;;;;;;;6.88;4.93;;;24.30;99.90;;;23.86;100.00;97868.31;5018110;28;20861;-73
2023/08/12 09:19:39;;;;;;;8.98;5.20;;;24.20;99.90;;;23.65;100.00;97893.13;4992104;28;20060;-73
2023/08/12 09:22:11;;;;;;;8.52;5.18;;;24.20;99.90;;;23.41;100.00;97912.06;5005590;28;20049;-72
2023/08/12 09:24:38;;;;;;;7.40;4.80;;;24.10;99.90;;;23.59;100.00;97915.72;4999832;28;20061;-73
2023/08/12 09:27:06;;;;;;;8.13;4.45;;;24.00;99.90;;;23.83;100.00;97919.78;5002522;28;20099;-72
2023/08/12 09:29:35;;;;;;;8.15;4.40;;;23.90;99.90;;;23.78;100.00;97903.47;5002264;28;20306;-73
2023/08/12 09:32:11;;;;;;;7.18;3.92;;;24.00;99.90;;;23.74;100.00;97924.13;5017302;28;20065;-73
2023/08/12 09:34:53;;;;;;;6.93;3.90;;;24.00;99.90;;;23.37;100.00;97932.69;5015922;28;20053;-72
2023/08/12 09:37:24;;;;;;;6.95;3.38;;;23.60;99.90;;;23.03;100.00;97936.66;5004306;28;20616;-73
2023/08/12 09:39:52;;;;;;;6.05;3.75;;;23.30;99.90;;;22.65;100.00;97943.44;5002357;28;20061;-72
2023/08/12 09:42:19;;;;;;;4.65;3.60;;;23.10;99.90;;;22.87;100.00;97950.38;4999099;28;20050;-73
2023/08/12 09:44:46;;;;;;;6.72;3.20;;;23.00;99.90;;;22.93;100.00;97944.56;4999179;28;20470;-73
2023/08/12 09:47:14;;;;;;;5.85;2.88;;;23.00;99.90;;;22.54;100.00;97949.69;5001385;28;20347;-73
2023/08/12 09:49:41;;;;;;;5.22;3.08;;;22.80;99.90;;;22.21;100.00;97945.41;5000979;28;20768;-72
2023/08/12 09:52:08;;;;;;;7.97;3.40;;;22.70;99.90;;;22.31;100.00;97919.91;4999741;28;20131;-71
2023/08/12 09:54:36;;;;;;;6.55;3.72;;;22.40;99.90;;;22.36;100.00;97908.94;5000446;28;20136;-73
2023/08/12 09:57:08;;;;;;;6.05;4.07;;;22.20;99.90;;;22.28;100.00;97928.09;4999076;28;20057;-73
2023/08/12 09:59:35;;;;;;;6.05;3.83;;;22.10;99.90;;;21.98;100.00;97961.38;5000379;28;20069;-73
2023/08/12 10:02:06;;;;;;;6.55;4.78;;;21.90;99.90;;;21.75;100.00;97963.28;5002435;28;20137;-73
2023/08/12 10:04:45;;;;;;;6.38;5.10;;;21.80;99.90;;;21.82;100.00;97966.28;4982696;28;20054;-74
2023/08/12 10:07:13;;;;;;;6.35;4.50;;;22.00;99.90;;;21.88;100.00;97971.91;5000442;28;20050;-73
2023/08/12 10:09:41;;;;;;;7.15;5.40;;;22.10;99.90;;;21.79;100.00;97990.31;4996511;28;20054;-73
2023/08/12 10:12:10;;;;;;;6.13;4.55;;;21.90;99.90;;;21.35;100.00;97997.34;5003580;28;20188;-75
2023/08/12 10:14:38;;;;;;;5.75;4.15;;;21.60;99.90;;;21.15;100.00;98012.97;5002017;28;20137;-74
2023/08/12 10:17:09;;;;;;;5.20;4.57;;;21.50;99.90;;;20.89;100.00;98025.56;5000851;28;20593;-73